createdAt,value
2022-11-15T00:01:45.230Z,96432.75
2022-11-15T00:04:30.872Z,96442.75
2022-11-15T00:07:40.199Z,96442.97
2022-11-15T00:10:21.892Z,96446.63
2022-11-15T00:13:14.321Z,96443.56
2022-11-15T00:16:02.183Z,96443.69
2022-11-15T00:18:50.899Z,96441.66
2022-11-15T00:21:36.852Z,96444.03
2022-11-15T00:24:22.680Z,96440.41
2022-11-15T00:27:08.583Z,96445.41
2022-11-15T00:29:54.493Z,96438.94
2022-11-15T00:32:40.156Z,96439.94
2022-11-15T00:35:25.677Z,96441.91
2022-11-15T00:38:11.237Z,96442.44
2022-11-15T00:40:56.792Z,96439.84
2022-11-15T00:43:44.881Z,96439.50
2022-11-15T00:46:30.332Z,96438.59
2022-11-15T00:49:15.854Z,96435.75
2022-11-15T00:52:01.443Z,96432.91
2022-11-15T00:54:47.433Z,96432.25
2022-11-15T00:57:32.990Z,96427.88
2022-11-15T01:00:18.584Z,96421.44
2022-11-15T01:03:04.432Z,96424.84
2022-11-15T01:05:50.177Z,96418.38
2022-11-15T01:08:36.412Z,96412.44
2022-11-15T01:11:21.929Z,96402.22
2022-11-15T01:14:07.527Z,96400.75
2022-11-15T01:16:53.230Z,96395.53
2022-11-15T01:19:39.030Z,96388.47
2022-11-15T01:22:24.649Z,96389.72
2022-11-15T01:25:10.378Z,96385.06
2022-11-15T01:27:56.032Z,96380.38
2022-11-15T01:30:41.789Z,96378.34
2022-11-15T01:33:29.308Z,96379.84
2022-11-15T01:36:22.871Z,96371.41
2022-11-15T01:39:09.371Z,96374.84
2022-11-15T01:41:55.329Z,96366.41
2022-11-15T01:44:47.051Z,96375.63
2022-11-15T01:47:36.281Z,96372.44
2022-11-15T01:50:30.830Z,96373.47
2022-11-15T01:53:17.310Z,96369.25
2022-11-15T01:56:07.869Z,96357.78
2022-11-15T01:58:56.878Z,96358.13
2022-11-15T02:01:43.569Z,96360.50
2022-11-15T02:04:48.970Z,96357.22
2022-11-15T02:07:36.809Z,96354.38
2022-11-15T02:10:24.837Z,96353.78
2022-11-15T02:13:11.179Z,96351.75
2022-11-15T02:16:08.617Z,96336.72
2022-11-15T02:19:03.900Z,96338.00
2022-11-15T02:22:10.790Z,96336.72
2022-11-15T02:25:25.770Z,96332.19
2022-11-15T02:28:32.390Z,96332.66
2022-11-15T02:31:23.891Z,96337.31
2022-11-15T02:34:35.029Z,96328.00
2022-11-15T02:38:01.038Z,96324.13
2022-11-15T02:41:02.885Z,96333.56
2022-11-15T02:44:02.289Z,96336.72
2022-11-15T02:47:12.510Z,96330.41
2022-11-15T02:50:08.469Z,96322.41
2022-11-15T02:52:54.371Z,96329.47
2022-11-15T02:55:46.109Z,96330.94
2022-11-15T02:58:34.389Z,96331.41
2022-11-15T03:01:19.978Z,96338.69
2022-11-15T03:04:14.478Z,96345.81
2022-11-15T03:07:12.092Z,96339.34
2022-11-15T03:10:03.545Z,96327.09
2022-11-15T03:13:08.919Z,96325.84
2022-11-15T03:16:18.268Z,96312.22
2022-11-15T03:19:19.748Z,96313.59
2022-11-15T03:22:08.831Z,96314.72
2022-11-15T03:25:00.170Z,96318.34
2022-11-15T03:27:51.848Z,96312.66
2022-11-15T03:30:39.809Z,96312.09
2022-11-15T03:33:26.248Z,96309.03
2022-11-15T03:36:12.088Z,96305.63
2022-11-15T03:39:03.651Z,96300.63
2022-11-15T03:42:27.169Z,96295.16
2022-11-15T03:45:23.490Z,96298.81
2022-11-15T03:48:15.984Z,96295.84
2022-11-15T03:51:02.491Z,96291.88
2022-11-15T03:53:48.231Z,96287.19
2022-11-15T03:56:34.233Z,96285.84
2022-11-15T03:59:19.849Z,96288.34
2022-11-15T04:02:05.335Z,96279.59
2022-11-15T04:04:50.789Z,96280.41
2022-11-15T04:07:36.448Z,96280.63
2022-11-15T04:10:22.590Z,96281.78
2022-11-15T04:13:08.070Z,96275.75
2022-11-15T04:15:53.569Z,96269.50
2022-11-15T04:18:39.075Z,96263.47
2022-11-15T04:21:43.390Z,96267.69
2022-11-15T04:24:29.409Z,96256.44
2022-11-15T04:27:15.370Z,96253.94
2022-11-15T04:30:01.073Z,96250.28
2022-11-15T04:32:46.852Z,96256.56
2022-11-15T04:35:32.249Z,96252.91
2022-11-15T04:38:17.929Z,96245.97
2022-11-15T04:41:04.429Z,96246.66
2022-11-15T04:43:50.210Z,96244.84
2022-11-15T04:46:35.902Z,96247.00
2022-11-15T04:49:21.441Z,96241.78
2022-11-15T04:52:06.931Z,96240.38
2022-11-15T04:54:52.510Z,96234.16
2022-11-15T04:57:39.214Z,96232.53
2022-11-15T05:00:24.811Z,96236.16
2022-11-15T05:03:29.791Z,96237.22
2022-11-15T05:06:15.168Z,96240.28
2022-11-15T05:09:00.669Z,96239.38
2022-11-15T05:11:46.933Z,96239.16
2022-11-15T05:14:32.556Z,96232.09
2022-11-15T05:17:18.071Z,96229.72
2022-11-15T05:20:03.540Z,96219.13
2022-11-15T05:22:49.161Z,96228.34
2022-11-15T05:25:34.642Z,96223.56
2022-11-15T05:28:20.321Z,96222.78
2022-11-15T05:31:08.900Z,96228.03
2022-11-15T05:33:56.280Z,96225.16
2022-11-15T05:36:48.448Z,96219.94
2022-11-15T05:39:34.182Z,96219.38
2022-11-15T05:42:20.839Z,96225.84
2022-11-15T05:45:09.851Z,96225.72
2022-11-15T05:47:58.932Z,96223.34
2022-11-15T05:50:47.625Z,96228.56
2022-11-15T05:53:34.354Z,96227.78
2022-11-15T05:56:20.648Z,96227.78
2022-11-15T05:59:07.396Z,96231.41
2022-11-15T06:01:52.889Z,96237.84
2022-11-15T06:04:38.521Z,96237.09
2022-11-15T06:07:24.396Z,96232.63
2022-11-15T06:10:10.241Z,96237.63
2022-11-15T06:13:03.740Z,96240.13
2022-11-15T06:15:49.488Z,96241.16
2022-11-15T06:18:36.049Z,96249.41
2022-11-15T06:21:21.752Z,96240.13
2022-11-15T06:24:07.523Z,96243.28
2022-11-15T06:26:53.737Z,96236.84
2022-11-15T06:29:39.384Z,96240.25
2022-11-15T06:32:25.003Z,96244.78
2022-11-15T06:35:10.922Z,96235.81
2022-11-15T06:37:56.502Z,96240.56
2022-11-15T06:40:42.089Z,96239.56
2022-11-15T06:43:27.824Z,96245.25
2022-11-15T06:46:13.349Z,96247.06
2022-11-15T06:48:58.983Z,96247.16
2022-11-15T06:51:44.281Z,96242.75
2022-11-15T06:54:29.963Z,96242.75
2022-11-15T06:57:15.621Z,96238.09
2022-11-15T07:00:01.221Z,96242.31
2022-11-15T07:02:48.081Z,96246.38
2022-11-15T07:05:34.201Z,96251.59
2022-11-15T07:08:19.521Z,96247.53
2022-11-15T07:11:07.684Z,96250.78
2022-11-15T07:13:53.124Z,96257.50
2022-11-15T07:16:38.945Z,96253.19
2022-11-15T07:19:33.589Z,96246.38
2022-11-15T07:22:19.265Z,96245.00
2022-11-15T07:25:05.382Z,96243.19
2022-11-15T07:27:58.945Z,96241.16
2022-11-15T07:30:45.551Z,96239.44
2022-11-15T07:33:31.902Z,96241.38
2022-11-15T07:36:18.111Z,96241.84
2022-11-15T07:39:03.882Z,96228.00
2022-11-15T07:41:50.681Z,96234.13
2022-11-15T07:44:36.183Z,96227.41
2022-11-15T07:47:21.882Z,96237.97
2022-11-15T07:50:07.882Z,96234.69
2022-11-15T07:53:01.145Z,96224.13
2022-11-15T07:55:46.841Z,96223.19
2022-11-15T07:58:32.368Z,96228.53
2022-11-15T08:01:18.249Z,96230.03
2022-11-15T08:04:03.801Z,96236.28
2022-11-15T08:06:49.695Z,96225.06
2022-11-15T08:09:35.023Z,96228.31
2022-11-15T08:12:21.290Z,96217.09
2022-11-15T08:15:07.444Z,96216.97
2022-11-15T08:17:58.031Z,96209.50
2022-11-15T08:20:44.143Z,96215.50
2022-11-15T08:23:30.216Z,96219.13
2022-11-15T08:26:16.225Z,96210.41
2022-11-15T08:29:01.963Z,96214.16
2022-11-15T08:31:47.384Z,96197.47
2022-11-15T08:34:32.923Z,96203.25
2022-11-15T08:37:18.222Z,96202.16
2022-11-15T08:40:04.903Z,96198.97
2022-11-15T08:42:50.603Z,96197.34
2022-11-15T08:45:36.923Z,96199.97
2022-11-15T08:48:22.403Z,96196.22
2022-11-15T08:51:08.224Z,96192.66
2022-11-15T08:53:53.881Z,96188.34
2022-11-15T08:56:39.344Z,96189.78
2022-11-15T08:59:24.844Z,96195.59
2022-11-15T09:02:15.904Z,96186.59
2022-11-15T09:05:01.385Z,96185.00
2022-11-15T09:07:46.944Z,96191.44
2022-11-15T09:10:32.403Z,96184.81
2022-11-15T09:13:18.242Z,96194.69
2022-11-15T09:16:04.583Z,96191.59
2022-11-15T09:18:50.370Z,96193.03
2022-11-15T09:21:36.143Z,96182.88
2022-11-15T09:24:22.184Z,96183.81
2022-11-15T09:27:07.791Z,96184.50
2022-11-15T09:29:53.163Z,96178.09
2022-11-15T09:32:39.510Z,96176.38
2022-11-15T09:35:25.163Z,96171.78
2022-11-15T09:38:11.041Z,96165.44
2022-11-15T09:41:15.150Z,96166.69
2022-11-15T09:44:39.104Z,96167.00
2022-11-15T09:47:40.122Z,96162.78
2022-11-15T09:50:37.592Z,96159.56
2022-11-15T09:53:05.002Z,96150.66
2022-11-15T09:56:06.643Z,96145.44
2022-11-15T09:58:59.441Z,96149.31
2022-11-15T10:01:51.322Z,96147.47
2022-11-15T10:04:19.600Z,96145.09
2022-11-15T10:06:59.430Z,96136.69
2022-11-15T10:09:58.462Z,96124.31
2022-11-15T10:12:27.281Z,96123.19
2022-11-15T10:15:02.911Z,96119.88
2022-11-15T10:18:08.262Z,96110.81
2022-11-15T10:20:48.703Z,96108.56
2022-11-15T10:23:19.853Z,96097.41
2022-11-15T10:25:47.162Z,96097.41
2022-11-15T10:28:27.703Z,96086.50
2022-11-15T10:30:57.229Z,96076.09
2022-11-15T10:33:35.467Z,96073.22
2022-11-15T10:36:09.843Z,96064.34
2022-11-15T10:38:55.303Z,96060.19
2022-11-15T10:41:28.523Z,96054.97
2022-11-15T10:44:07.791Z,96053.47
2022-11-15T10:46:46.490Z,96045.38
2022-11-15T10:49:17.241Z,96046.72
2022-11-15T10:51:51.482Z,96044.00
2022-11-15T10:54:28.662Z,96030.34
2022-11-15T10:56:59.715Z,96018.91
2022-11-15T10:59:39.464Z,96013.75
2022-11-15T11:02:29.951Z,96014.13
2022-11-15T11:04:57.924Z,96022.88
2022-11-15T11:07:28.227Z,96013.03
2022-11-15T11:10:49.742Z,96009.47
2022-11-15T11:13:27.926Z,96008.41
2022-11-15T11:16:03.812Z,96000.97
2022-11-15T11:18:40.182Z,95996.34
2022-11-15T11:21:14.421Z,95984.59
2022-11-15T11:23:55.096Z,95979.09
2022-11-15T11:26:42.266Z,95983.56
2022-11-15T11:29:33.923Z,95977.34
2022-11-15T11:32:03.861Z,95972.09
2022-11-15T11:34:59.891Z,95972.34
2022-11-15T11:37:48.849Z,95966.78
2022-11-15T11:40:57.562Z,95962.00
2022-11-15T11:43:41.691Z,95962.25
2022-11-15T11:46:35.185Z,95961.16
2022-11-15T11:49:17.705Z,95951.38
2022-11-15T11:51:59.666Z,95958.69
2022-11-15T11:54:59.182Z,95945.56
2022-11-15T11:57:32.284Z,95940.69
2022-11-15T12:00:14.110Z,95941.94
2022-11-15T12:13:27.465Z,95911.06
2022-11-15T12:16:21.710Z,95915.19
2022-11-15T12:18:54.941Z,95911.66
2022-11-15T12:21:59.106Z,95905.72
2022-11-15T12:24:33.363Z,95912.34
2022-11-15T12:27:39.025Z,95897.97
2022-11-15T12:30:14.533Z,95894.84
2022-11-15T12:32:52.581Z,95896.47
2022-11-15T12:35:38.391Z,95881.31
2022-11-15T12:38:06.305Z,95885.00
2022-11-15T12:40:39.323Z,95886.63
2022-11-15T12:43:15.281Z,95885.59
2022-11-15T12:45:45.624Z,95878.53
2022-11-15T12:48:18.431Z,95884.56
2022-11-15T12:50:55.522Z,95880.00
2022-11-15T12:53:25.769Z,95879.72
2022-11-15T12:56:14.145Z,95878.38
2022-11-15T12:58:47.523Z,95887.03
2022-11-15T13:01:35.597Z,95884.38
2022-11-15T13:04:17.966Z,95882.75
2022-11-15T13:06:53.649Z,95877.50
2022-11-15T13:09:38.790Z,95872.41
2022-11-15T13:12:27.482Z,95866.03
2022-11-15T13:15:01.961Z,95861.09
2022-11-15T13:17:35.143Z,95860.59
2022-11-15T13:20:08.145Z,95861.69
2022-11-15T13:23:00.684Z,95861.66
2022-11-15T13:25:42.928Z,95858.00
2022-11-15T13:28:23.940Z,95852.63
2022-11-15T13:30:54.768Z,95857.28
2022-11-15T13:33:21.803Z,95862.81
2022-11-15T13:36:15.004Z,95860.41
2022-11-15T13:38:43.285Z,95861.94
2022-11-15T13:41:21.521Z,95855.16
2022-11-15T13:43:50.764Z,95852.00
2022-11-15T13:46:19.343Z,95842.00
2022-11-15T13:48:48.125Z,95832.56
2022-11-15T13:51:21.262Z,95836.47
2022-11-15T13:53:55.901Z,95833.84
2022-11-15T13:56:23.542Z,95826.91
2022-11-15T13:58:50.622Z,95830.88
2022-11-15T14:01:21.964Z,95834.53
2022-11-15T14:03:58.974Z,95828.22
2022-11-15T14:06:29.567Z,95826.06
2022-11-15T14:09:10.671Z,95830.50
2022-11-15T14:11:38.432Z,95827.53
2022-11-15T14:14:13.244Z,95823.31
2022-11-15T14:16:43.581Z,95820.19
2022-11-15T14:19:21.384Z,95822.06
2022-11-15T14:22:23.668Z,95825.94
2022-11-15T14:25:20.208Z,95818.88
2022-11-15T14:28:14.901Z,95809.47
2022-11-15T14:30:43.542Z,95809.78
2022-11-15T14:33:25.450Z,95805.00
2022-11-15T14:35:53.831Z,95798.75
2022-11-15T14:38:20.941Z,95802.16
2022-11-15T14:40:48.021Z,95794.25
2022-11-15T14:43:15.470Z,95799.25
2022-11-15T14:45:42.909Z,95796.81
2022-11-15T14:48:09.982Z,95798.38
2022-11-15T14:50:37.322Z,95789.47
2022-11-15T14:53:05.347Z,95792.88
2022-11-15T14:55:36.341Z,95791.78
2022-11-15T14:58:04.859Z,95793.84
2022-11-15T15:00:35.377Z,95794.63
2022-11-15T15:03:03.643Z,95793.34
2022-11-15T15:05:36.424Z,95784.69
2022-11-15T15:08:04.417Z,95786.56
2022-11-15T15:10:41.730Z,95774.75
2022-11-15T15:13:23.812Z,95770.31
2022-11-15T15:15:52.903Z,95768.16
2022-11-15T15:18:21.237Z,95766.59
2022-11-15T15:21:08.153Z,95756.69
2022-11-15T15:23:36.750Z,95755.59
2022-11-15T15:26:04.178Z,95755.84
2022-11-15T15:28:34.595Z,95757.41
2022-11-15T15:31:02.485Z,95756.63
2022-11-15T15:33:29.470Z,95750.56
2022-11-15T15:35:56.501Z,95747.16
2022-11-15T15:38:23.989Z,95741.19
2022-11-15T15:40:51.779Z,95752.09
2022-11-15T15:43:18.965Z,95738.00
2022-11-15T15:45:46.184Z,95750.06
2022-11-15T15:48:15.920Z,95735.63
2022-11-15T15:50:44.155Z,95740.84
2022-11-15T15:53:14.402Z,95746.34
2022-11-15T15:55:41.651Z,95743.66
2022-11-15T15:58:09.443Z,95738.38
2022-11-15T16:00:37.279Z,95741.47
2022-11-15T16:03:04.338Z,95742.53
2022-11-15T16:05:31.383Z,95736.97
2022-11-15T16:07:58.420Z,95736.72
2022-11-15T16:10:30.656Z,95734.91
2022-11-15T16:12:59.233Z,95732.06
2022-11-15T16:15:30.643Z,95733.09
2022-11-15T16:18:00.105Z,95738.31
2022-11-15T16:20:36.506Z,95726.03
2022-11-15T16:23:14.811Z,95734.69
2022-11-15T16:25:50.791Z,95728.38
2022-11-15T16:28:26.488Z,95720.81
2022-11-15T16:31:11.724Z,95722.09
2022-11-15T16:33:39.741Z,95728.56
2022-11-15T16:36:15.693Z,95722.56
2022-11-15T16:38:42.730Z,95722.81
2022-11-15T16:41:09.752Z,95715.69
2022-11-15T16:43:36.700Z,95713.16
2022-11-15T16:46:13.710Z,95710.47
2022-11-15T16:48:40.853Z,95705.06
2022-11-15T16:51:08.040Z,95696.50
2022-11-15T16:53:35.041Z,95701.78
2022-11-15T16:56:02.294Z,95686.34
2022-11-15T16:58:29.866Z,95697.91
2022-11-15T17:00:57.548Z,95692.16
2022-11-15T17:03:25.488Z,95683.25
2022-11-15T17:05:52.867Z,95691.69
2022-11-15T17:08:22.213Z,95683.06
2022-11-15T17:10:49.610Z,95682.81
2022-11-15T17:13:16.760Z,95675.69
2022-11-15T17:15:44.021Z,95682.50
2022-11-15T17:18:13.320Z,95675.41
2022-11-15T17:20:41.691Z,95681.19
2022-11-15T17:23:14.767Z,95680.91
2022-11-15T17:25:42.763Z,95673.06
2022-11-15T17:28:11.993Z,95668.59
2022-11-15T17:30:43.748Z,95672.00
2022-11-15T17:33:10.803Z,95663.84
2022-11-15T17:35:37.699Z,95660.19
2022-11-15T17:38:04.702Z,95656.75
2022-11-15T17:40:31.672Z,95664.03
2022-11-15T17:42:58.662Z,95651.53
2022-11-15T17:45:25.672Z,95652.00
2022-11-15T17:47:53.931Z,95647.28
2022-11-15T17:50:20.712Z,95652.75
2022-11-15T17:52:47.680Z,95642.00
2022-11-15T17:55:14.890Z,95646.44
2022-11-15T17:57:44.552Z,95644.06
2022-11-15T18:00:12.138Z,95643.75
2022-11-15T18:02:39.452Z,95644.00
2022-11-15T18:05:06.960Z,95635.84
2022-11-15T18:07:33.972Z,95636.66
2022-11-15T18:10:01.083Z,95630.63
2022-11-15T18:12:28.041Z,95634.59
2022-11-15T18:14:55.022Z,95630.38
2022-11-15T18:17:22.062Z,95629.59
2022-11-15T18:19:49.037Z,95637.19
2022-11-15T18:22:16.065Z,95637.19
2022-11-15T18:24:44.138Z,95633.25
2022-11-15T18:27:11.550Z,95634.03
2022-11-15T18:29:38.912Z,95640.03
2022-11-15T18:32:11.908Z,95628.50
2022-11-15T18:34:39.226Z,95624.06
2022-11-15T18:37:06.770Z,95626.94
2022-11-15T18:39:33.771Z,95625.34
2022-11-15T18:42:01.661Z,95628.44
2022-11-15T18:44:30.435Z,95639.13
2022-11-15T18:46:57.808Z,95632.88
2022-11-15T18:49:25.069Z,95624.00
2022-11-15T18:51:52.071Z,95621.16
2022-11-15T18:54:19.360Z,95614.09
2022-11-15T18:56:47.359Z,95610.38
2022-11-15T18:59:15.528Z,95607.78
2022-11-15T19:01:50.812Z,95611.41
2022-11-15T19:04:20.040Z,95603.41
2022-11-15T19:06:49.522Z,95603.41
2022-11-15T19:09:18.530Z,95602.06
2022-11-15T19:11:47.390Z,95597.66
2022-11-15T19:14:17.698Z,95597.41
2022-11-15T19:16:52.727Z,95598.19
2022-11-15T19:19:23.646Z,95591.16
2022-11-15T19:21:52.033Z,95586.22
2022-11-15T19:24:20.920Z,95592.22
2022-11-15T19:26:48.763Z,95601.88
2022-11-15T19:29:16.239Z,95598.53
2022-11-15T19:31:43.420Z,95594.41
2022-11-15T19:34:10.741Z,95595.13
2022-11-15T19:36:41.155Z,95584.16
2022-11-15T19:39:13.142Z,95589.66
2022-11-15T19:41:42.733Z,95584.69
2022-11-15T19:44:11.399Z,95584.19
2022-11-15T19:46:39.188Z,95581.03
2022-11-15T19:49:08.250Z,95592.50
2022-11-15T19:51:35.261Z,95580.50
2022-11-15T19:54:06.877Z,95578.94
2022-11-15T19:56:35.146Z,95583.66
2022-11-15T19:59:03.242Z,95572.69
2022-11-15T20:01:33.184Z,95580.00
2022-11-15T20:04:00.961Z,95572.97
2022-11-15T20:06:29.901Z,95573.28
2022-11-15T20:08:57.079Z,95575.88
2022-11-15T20:11:24.702Z,95572.22
2022-11-15T20:13:51.760Z,95566.50
2022-11-15T20:16:21.422Z,95572.53
2022-11-15T20:18:50.339Z,95563.66
2022-11-15T20:21:17.642Z,95571.25
2022-11-15T20:23:45.051Z,95568.56
2022-11-15T20:26:12.697Z,95573.56
2022-11-15T20:28:40.540Z,95573.31
2022-11-15T20:31:08.189Z,95567.78
2022-11-15T20:33:35.167Z,95564.38
2022-11-15T20:36:07.589Z,95558.91
2022-11-15T20:38:34.918Z,95552.66
2022-11-15T20:41:02.190Z,95547.38
2022-11-15T20:43:29.300Z,95547.63
2022-11-15T20:45:56.520Z,95548.66
2022-11-15T20:48:23.452Z,95544.97
2022-11-15T20:50:50.449Z,95549.63
2022-11-15T20:53:19.561Z,95551.69
2022-11-15T20:55:49.442Z,95545.69
2022-11-15T20:58:17.772Z,95538.63
2022-11-15T21:00:45.889Z,95533.72
2022-11-15T21:03:13.704Z,95531.91
2022-11-15T21:05:42.840Z,95525.09
2022-11-15T21:08:10.992Z,95525.09
2022-11-15T21:10:56.502Z,95523.50
2022-11-15T21:13:23.619Z,95518.06
2022-11-15T21:15:50.561Z,95513.63
2022-11-15T21:18:17.671Z,95509.19
2022-11-15T21:20:44.719Z,95514.13
2022-11-15T21:23:12.224Z,95510.75
2022-11-15T21:25:39.219Z,95515.72
2022-11-15T21:28:06.270Z,95509.69
2022-11-15T21:30:33.181Z,95502.13
2022-11-15T21:33:00.168Z,95513.09
2022-11-15T21:35:27.161Z,95502.41
2022-11-15T21:37:56.978Z,95504.00
2022-11-15T21:40:25.465Z,95502.41
2022-11-15T21:42:52.265Z,95506.06
2022-11-15T21:45:19.201Z,95507.84
2022-11-15T21:47:46.847Z,95506.78
2022-11-15T21:50:14.418Z,95507.28
2022-11-15T21:52:41.781Z,95501.53
2022-11-15T21:55:09.487Z,95502.34
2022-11-15T21:57:36.484Z,95497.88
2022-11-15T22:00:24.061Z,95489.56
2022-11-15T22:02:50.989Z,95493.16
2022-11-15T22:05:17.960Z,95487.69
2022-11-15T22:07:44.922Z,95481.16
2022-11-15T22:10:11.892Z,95471.00
2022-11-15T22:12:39.080Z,95468.63
2022-11-15T22:15:06.440Z,95467.06
2022-11-15T22:17:51.991Z,95463.09
2022-11-15T22:23:06.591Z,95459.19
2022-11-15T22:25:33.641Z,95453.59
2022-11-15T22:28:00.813Z,95454.97
2022-11-15T22:30:27.822Z,95442.97
2022-11-15T22:32:54.864Z,95440.09
2022-11-15T22:35:21.904Z,95434.59
2022-11-15T22:37:48.941Z,95433.06
2022-11-15T22:40:15.969Z,95425.47
2022-11-15T22:42:42.950Z,95426.81
2022-11-15T22:45:10.201Z,95421.09
2022-11-15T22:47:37.181Z,95421.09
2022-11-15T22:50:05.652Z,95417.66
2022-11-15T22:52:32.760Z,95413.75
2022-11-15T22:54:59.759Z,95420.28
2022-11-15T22:57:26.772Z,95421.34
2022-11-15T22:59:53.852Z,95422.38
2022-11-15T23:02:20.942Z,95415.84
2022-11-15T23:04:48.021Z,95412.72
2022-11-15T23:07:15.137Z,95413.47
2022-11-15T23:09:43.620Z,95413.69
2022-11-15T23:12:32.373Z,95410.00
2022-11-15T23:14:59.512Z,95408.19
2022-11-15T23:17:26.631Z,95404.03
2022-11-15T23:19:53.669Z,95404.25
2022-11-15T23:22:39.271Z,95397.16
2022-11-15T23:25:06.760Z,95395.25
2022-11-15T23:27:33.725Z,95389.25
2022-11-15T23:30:19.370Z,95389.75
2022-11-15T23:33:04.976Z,95382.16
2022-11-15T23:35:32.029Z,95381.38
2022-11-15T23:37:59.053Z,95376.66
2022-11-15T23:40:26.131Z,95373.50
2022-11-15T23:42:53.271Z,95378.91
2022-11-15T23:45:20.290Z,95376.84
2022-11-15T23:47:47.376Z,95366.28
2022-11-15T23:50:14.421Z,95364.50
2022-11-15T23:52:41.441Z,95357.25
2022-11-15T23:55:08.859Z,95354.34
2022-11-15T23:57:35.918Z,95349.66
